createdAt,value
2023-05-03T00:02:44.586Z,17.10
2023-05-03T00:06:51.682Z,12.93
2023-05-03T00:11:03.884Z,15.13
2023-05-03T00:15:10.021Z,13.97
2023-05-03T00:19:24.220Z,13.32
2023-05-03T00:23:34.065Z,12.80
2023-05-03T00:27:38.986Z,12.43
2023-05-03T00:31:52.022Z,14.48
2023-05-03T00:35:54.784Z,15.50
2023-05-03T00:39:59.215Z,17.80
2023-05-03T00:44:04.130Z,11.88
2023-05-03T00:48:08.847Z,14.70
2023-05-03T00:52:12.854Z,14.43
2023-05-03T00:56:23.037Z,18.87
2023-05-03T01:00:27.663Z,11.45
2023-05-03T01:04:34.114Z,14.03
2023-05-03T01:08:40.315Z,14.30
2023-05-03T01:12:54.484Z,16.40
2023-05-03T01:17:03.218Z,17.63
2023-05-03T01:21:12.280Z,24.33
2023-05-03T01:25:30.614Z,16.83
2023-05-03T01:29:37.132Z,22.23
2023-05-03T01:33:48.472Z,20.27
2023-05-03T01:37:52.978Z,20.03
2023-05-03T01:41:58.899Z,18.00
2023-05-03T01:46:02.033Z,22.97
2023-05-03T01:50:07.489Z,20.30
2023-05-03T01:54:12.144Z,13.60
2023-05-03T01:58:17.241Z,16.80
2023-05-03T02:02:21.156Z,19.33
2023-05-03T02:06:26.342Z,16.43
2023-05-03T02:10:32.386Z,18.37
2023-05-03T02:14:40.199Z,20.80
2023-05-03T02:18:45.157Z,22.03
2023-05-03T02:22:50.000Z,17.57
2023-05-03T02:26:53.137Z,20.10
2023-05-03T02:30:57.756Z,20.50
2023-05-03T02:35:03.247Z,20.10
2023-05-03T02:39:08.878Z,24.43
2023-05-03T02:43:15.417Z,22.57
2023-05-03T02:47:21.794Z,20.47
2023-05-03T02:51:28.174Z,20.30
2023-05-03T02:55:34.431Z,19.00
2023-05-03T02:59:37.519Z,24.33
2023-05-03T03:03:43.454Z,20.60
2023-05-03T03:07:46.535Z,19.03
2023-05-03T03:11:50.087Z,22.30
2023-05-03T03:15:53.263Z,23.90
2023-05-03T03:19:58.511Z,21.37
2023-05-03T03:24:01.778Z,19.97
2023-05-03T03:28:07.969Z,20.00
2023-05-03T03:32:12.341Z,21.97
2023-05-03T03:36:17.040Z,21.47
2023-05-03T03:44:39.816Z,21.50
2023-05-03T03:48:46.126Z,22.70
2023-05-03T03:52:50.553Z,23.87
2023-05-03T03:56:56.571Z,25.43
2023-05-03T04:01:00.892Z,20.37
2023-05-03T04:05:04.076Z,24.40
2023-05-03T04:09:10.549Z,27.63
2023-05-03T04:13:13.756Z,28.07
2023-05-03T04:17:24.046Z,21.77
2023-05-03T04:21:29.711Z,23.00
2023-05-03T04:25:37.205Z,21.80
2023-05-03T04:29:40.242Z,25.97
2023-05-03T04:33:43.320Z,21.90
2023-05-03T04:37:46.918Z,24.83
2023-05-03T04:41:54.458Z,24.40
2023-05-03T04:46:00.930Z,32.40
2023-05-03T04:50:07.815Z,24.47
2023-05-03T04:54:12.101Z,23.60
2023-05-03T04:58:22.773Z,25.30
2023-05-03T05:02:29.241Z,25.00
2023-05-03T05:06:32.667Z,20.67
2023-05-03T05:10:38.785Z,24.27
2023-05-03T05:14:45.480Z,25.23
2023-05-03T05:18:48.723Z,31.70
2023-05-03T05:22:54.084Z,22.97
2023-05-03T05:26:57.388Z,23.23
2023-05-03T05:31:01.831Z,27.15
2023-05-03T05:35:10.907Z,27.63
2023-05-03T05:39:17.693Z,22.73
2023-05-03T05:43:22.913Z,26.35
2023-05-03T05:47:36.867Z,26.40
2023-05-03T05:51:40.137Z,26.80
2023-05-03T05:55:44.139Z,24.03
2023-05-03T05:59:47.255Z,23.40
2023-05-03T06:03:54.446Z,27.95
2023-05-03T06:08:00.250Z,26.90
2023-05-03T06:12:03.430Z,26.27
2023-05-03T06:16:12.861Z,22.38
2023-05-03T06:20:25.313Z,22.45
2023-05-03T06:24:31.234Z,23.90
2023-05-03T06:28:34.306Z,26.08
2023-05-03T06:32:37.358Z,27.08
2023-05-03T06:36:41.987Z,20.73
2023-05-03T06:40:46.302Z,26.85
2023-05-03T06:44:49.569Z,23.48
2023-05-03T06:48:56.220Z,26.13
2023-05-03T06:53:01.158Z,23.80
2023-05-03T06:57:04.890Z,21.45
2023-05-03T07:01:08.336Z,20.38
2023-05-03T07:05:11.861Z,27.23
2023-05-03T07:09:21.969Z,20.40
2023-05-03T07:13:32.125Z,22.52
2023-05-03T07:17:35.381Z,20.60
2023-05-03T07:21:46.684Z,22.73
2023-05-03T07:25:54.142Z,25.80
2023-05-03T07:29:59.704Z,19.67
2023-05-03T07:34:02.783Z,19.80
2023-05-03T07:38:05.854Z,24.90
2023-05-03T07:42:10.523Z,25.70
2023-05-03T07:46:17.553Z,20.10
2023-05-03T07:50:20.744Z,18.90
2023-05-03T07:54:26.337Z,19.75
2023-05-03T07:58:39.962Z,19.40
2023-05-03T08:02:46.104Z,20.98
2023-05-03T08:06:49.336Z,16.38
2023-05-03T08:10:54.065Z,17.58
2023-05-03T08:14:59.309Z,19.17
2023-05-03T08:19:08.102Z,21.25
2023-05-03T08:23:11.419Z,16.83
2023-05-03T08:27:17.458Z,16.50
2023-05-03T08:31:25.829Z,18.40
2023-05-03T08:35:34.850Z,16.80
2023-05-03T08:39:37.986Z,14.43
2023-05-03T08:43:46.502Z,16.15
2023-05-03T08:47:58.041Z,14.93
2023-05-03T08:52:04.068Z,21.00
2023-05-03T08:56:09.422Z,16.33
2023-05-03T09:00:13.570Z,15.65
2023-05-03T09:04:18.547Z,19.95
2023-05-03T09:08:22.864Z,14.70
2023-05-03T09:12:43.744Z,14.25
2023-05-03T09:16:47.876Z,14.07
2023-05-03T09:20:53.384Z,13.75
2023-05-03T09:24:57.624Z,15.90
2023-05-03T09:29:04.162Z,16.88
2023-05-03T09:33:08.260Z,15.38
2023-05-03T09:37:15.215Z,14.10
2023-05-03T09:41:29.029Z,13.48
2023-05-03T09:45:35.585Z,16.90
2023-05-03T09:49:39.352Z,15.95
2023-05-03T09:53:43.744Z,17.77
2023-05-03T09:57:51.079Z,23.73
2023-05-03T10:01:57.756Z,13.68
2023-05-03T10:06:06.526Z,13.73
2023-05-03T10:10:11.504Z,12.02
2023-05-03T10:14:15.047Z,14.05
2023-05-03T10:18:19.949Z,10.30
2023-05-03T10:22:23.497Z,13.80
2023-05-03T10:26:28.008Z,17.77
2023-05-03T10:30:35.057Z,11.73
2023-05-03T10:34:41.334Z,11.35
2023-05-03T10:38:45.259Z,14.40
2023-05-03T10:42:52.495Z,13.80
2023-05-03T10:46:58.891Z,12.35
2023-05-03T10:51:37.326Z,13.20
2023-05-03T10:56:01.431Z,10.63
2023-05-03T11:00:11.625Z,7.70
2023-05-03T11:04:22.183Z,9.70
2023-05-03T11:08:26.942Z,9.82
2023-05-03T11:12:30.045Z,11.82
2023-05-03T11:16:35.187Z,12.90
2023-05-03T11:20:38.956Z,9.43
2023-05-03T11:24:42.080Z,8.10
2023-05-03T11:28:46.351Z,7.03
2023-05-03T11:32:53.628Z,9.85
2023-05-03T11:36:56.716Z,10.40
2023-05-03T11:40:59.943Z,8.55
2023-05-03T11:45:13.985Z,11.60
2023-05-03T11:49:20.905Z,11.35
2023-05-03T11:53:27.629Z,8.27
2023-05-03T11:57:33.149Z,11.25
2023-05-03T12:01:36.391Z,10.93
2023-05-03T12:05:42.998Z,6.55
2023-05-03T12:10:00.848Z,11.05
2023-05-03T12:14:15.977Z,8.98
2023-05-03T12:18:22.973Z,6.57
2023-05-03T12:22:32.338Z,6.43
2023-05-03T12:26:37.834Z,12.73
2023-05-03T12:30:41.517Z,9.55
2023-05-03T12:35:02.128Z,12.65
2023-05-03T12:39:15.815Z,10.15
2023-05-03T12:43:21.506Z,9.60
2023-05-03T12:47:28.781Z,8.55
2023-05-03T12:51:35.376Z,8.43
2023-05-03T12:55:43.638Z,11.25
2023-05-03T13:00:01.985Z,11.80
2023-05-03T13:04:37.005Z,9.15
2023-05-03T13:08:34.790Z,10.98
2023-05-03T13:12:41.012Z,7.40
2023-05-03T13:16:44.671Z,11.40
2023-05-03T13:20:50.521Z,9.52
2023-05-03T13:24:53.774Z,6.78
2023-05-03T13:28:59.193Z,9.10
2023-05-03T13:33:02.590Z,14.45
2023-05-03T13:37:07.572Z,9.23
2023-05-03T13:41:10.651Z,8.65
2023-05-03T13:45:16.462Z,7.25
2023-05-03T13:49:25.611Z,7.57
2023-05-03T13:53:35.884Z,6.25
2023-05-03T13:57:41.054Z,7.13
2023-05-03T14:01:48.552Z,8.35
2023-05-03T14:05:51.717Z,10.38
2023-05-03T14:09:54.730Z,5.97
2023-05-03T14:13:58.864Z,6.88
2023-05-03T14:18:05.607Z,9.35
2023-05-03T14:22:10.560Z,7.32
2023-05-03T14:26:15.997Z,8.75
2023-05-03T14:30:22.789Z,10.48
2023-05-03T14:34:37.613Z,7.65
2023-05-03T14:38:41.792Z,9.70
2023-05-03T14:42:44.863Z,6.53
2023-05-03T14:46:48.020Z,9.18
2023-05-03T14:50:53.284Z,5.80
2023-05-03T14:54:56.666Z,7.57
2023-05-03T14:59:00.778Z,9.27
2023-05-03T15:03:22.131Z,8.32
2023-05-03T15:07:28.252Z,5.55
2023-05-03T15:11:31.273Z,5.80
2023-05-03T15:15:34.767Z,6.20
2023-05-03T15:19:38.238Z,6.78
2023-05-03T15:23:43.057Z,5.53
2023-05-03T15:27:49.243Z,6.38
2023-05-03T15:31:55.339Z,12.45
2023-05-03T15:35:58.616Z,5.22
2023-05-03T15:40:13.680Z,5.47
2023-05-03T15:44:19.653Z,6.65
2023-05-03T15:48:22.695Z,6.95
2023-05-03T15:52:25.840Z,4.78
2023-05-03T15:56:30.455Z,6.93
2023-05-03T16:00:34.751Z,7.50
2023-05-03T16:04:40.289Z,4.53
2023-05-03T16:08:43.704Z,5.22
2023-05-03T16:12:49.475Z,5.65
2023-05-03T16:16:53.994Z,6.15
2023-05-03T16:20:58.239Z,5.22
2023-05-03T16:25:03.913Z,4.53
2023-05-03T16:29:08.580Z,7.60
2023-05-03T16:33:12.246Z,4.47
2023-05-03T16:37:17.670Z,3.65
2023-05-03T16:41:21.102Z,4.82
2023-05-03T16:45:27.302Z,4.35
2023-05-03T16:49:34.362Z,4.40
2023-05-03T16:53:40.184Z,4.35
2023-05-03T16:57:44.793Z,7.00
2023-05-03T17:01:50.928Z,4.35
2023-05-03T17:05:54.403Z,3.22
2023-05-03T17:10:01.464Z,4.60
2023-05-03T17:14:04.784Z,4.80
2023-05-03T17:18:10.228Z,4.78
2023-05-03T17:22:13.292Z,2.90
2023-05-03T17:26:16.547Z,3.10
2023-05-03T17:30:21.197Z,5.68
2023-05-03T17:34:26.206Z,8.95
2023-05-03T17:38:29.586Z,6.10
2023-05-03T17:42:33.532Z,4.93
2023-05-03T17:46:36.849Z,3.88
2023-05-03T17:50:41.811Z,6.68
2023-05-03T17:54:46.261Z,3.63
2023-05-03T17:58:51.967Z,5.05
2023-05-03T18:02:56.469Z,3.97
2023-05-03T18:07:00.900Z,6.05
2023-05-03T18:11:06.504Z,3.13
2023-05-03T18:15:24.964Z,5.15
2023-05-03T18:19:29.440Z,6.32
2023-05-03T18:23:35.927Z,6.80
2023-05-03T18:27:41.982Z,6.82
2023-05-03T18:31:47.986Z,5.63
2023-05-03T18:35:52.738Z,7.47
2023-05-03T18:39:57.222Z,5.88
2023-05-03T18:44:00.337Z,9.48
2023-05-03T18:48:07.224Z,4.55
2023-05-03T18:52:10.300Z,6.00
2023-05-03T18:56:40.378Z,8.35
2023-05-03T19:00:49.227Z,4.90
2023-05-03T19:04:55.342Z,10.45
2023-05-03T19:09:01.052Z,7.20
2023-05-03T19:13:12.926Z,7.72
2023-05-03T19:17:19.116Z,7.55
2023-05-03T19:21:22.395Z,8.30
2023-05-03T19:25:30.260Z,8.10
2023-05-03T19:29:37.777Z,5.20
2023-05-03T19:33:41.149Z,5.47
2023-05-03T19:37:44.731Z,6.75
2023-05-03T19:41:49.010Z,6.50
2023-05-03T19:45:53.864Z,10.07
2023-05-03T19:49:57.119Z,7.40
2023-05-03T19:54:04.315Z,10.40
2023-05-03T19:58:09.218Z,5.88
2023-05-03T20:02:20.292Z,8.57
2023-05-03T20:06:24.773Z,10.25
2023-05-03T20:10:28.452Z,8.10
2023-05-03T20:14:32.503Z,7.47
2023-05-03T20:18:36.945Z,6.78
2023-05-03T20:22:40.065Z,12.65
2023-05-03T20:26:44.934Z,8.65
2023-05-03T20:30:50.088Z,9.25
2023-05-03T20:34:59.800Z,10.27
2023-05-03T20:39:03.109Z,8.98
2023-05-03T20:43:06.730Z,10.77
2023-05-03T20:47:10.049Z,11.03
2023-05-03T20:51:17.958Z,9.13
2023-05-03T20:55:23.799Z,8.53
2023-05-03T20:59:27.918Z,12.73
2023-05-03T21:03:33.192Z,8.27
2023-05-03T21:07:39.941Z,11.57
2023-05-03T21:11:43.055Z,10.10
2023-05-03T21:15:47.350Z,9.77
2023-05-03T21:19:50.481Z,11.25
2023-05-03T21:23:56.893Z,9.10
2023-05-03T21:28:00.495Z,10.47
2023-05-03T21:32:04.436Z,12.87
2023-05-03T21:36:09.378Z,9.20
2023-05-03T21:40:18.270Z,11.35
2023-05-03T21:44:22.923Z,12.65
2023-05-03T21:48:31.587Z,10.38
2023-05-03T21:52:37.885Z,12.07
2023-05-03T21:56:42.775Z,11.93
2023-05-03T22:00:45.872Z,9.50
2023-05-03T22:04:51.608Z,11.60
2023-05-03T22:08:56.520Z,13.32
2023-05-03T22:13:04.012Z,10.67
2023-05-03T22:17:09.387Z,9.63
2023-05-03T22:21:12.725Z,13.38
2023-05-03T22:25:32.130Z,13.45
2023-05-03T22:29:38.120Z,9.40
2023-05-03T22:33:45.190Z,15.10
2023-05-03T22:37:50.224Z,9.67
2023-05-03T22:41:53.645Z,10.50
2023-05-03T22:45:58.660Z,11.95
2023-05-03T22:50:02.144Z,12.32
2023-05-03T22:54:05.932Z,9.30
2023-05-03T22:58:15.072Z,10.77
2023-05-03T23:02:28.490Z,8.18
2023-05-03T23:06:34.256Z,10.77
2023-05-03T23:10:40.146Z,12.60
2023-05-03T23:14:46.174Z,9.85
2023-05-03T23:18:57.658Z,10.57
2023-05-03T23:23:02.865Z,10.77
2023-05-03T23:27:06.254Z,12.57
2023-05-03T23:31:11.280Z,14.30
2023-05-03T23:35:16.357Z,14.70
2023-05-03T23:39:20.541Z,11.07
2023-05-03T23:43:25.178Z,12.43
2023-05-03T23:47:30.611Z,11.63
2023-05-03T23:51:44.317Z,14.83
2023-05-03T23:55:47.668Z,12.33
2023-05-03T23:59:54.269Z,9.43
